Time;durP1;ratioP1;P1;durP2;ratioP2;P2;SDS_P1;SDS_P2;PMS_P1;PMS_P2;Temp;Humidity;BMP_temperature;BMP_pressure;BME280_temperature;BME280_humidity;BME280_pressure;Samples;Min_cycle;Max_cycle;Signal;HPM_P1;HPM_P2
2023/02/13 00:00:45;;;;;;;26.47;18.80;;;8.40;99.90;;;;;;5042911;28;20452;-85
2023/02/13 00:03:12;;;;;;;25.43;17.60;;;8.30;99.90;;;;;;5043355;28;20998;-85
2023/02/13 00:05:39;;;;;;;26.10;18.13;;;8.40;99.90;;;;;;5042740;28;21169;-85
2023/02/13 00:08:06;;;;;;;22.27;17.20;;;8.40;99.90;;;;;;5043123;28;20456;-84
2023/02/13 00:10:32;;;;;;;22.03;19.23;;;8.40;99.90;;;;;;5042905;28;20831;-84
2023/02/13 00:13:00;;;;;;;24.63;18.60;;;8.40;99.90;;;;;;5043262;28;20470;-85
2023/02/13 00:15:27;;;;;;;23.13;18.40;;;8.40;99.90;;;;;;5042923;28;20448;-84
2023/02/13 00:17:54;;;;;;;29.40;22.20;;;8.30;99.90;;;;;;5042804;28;20456;-84
2023/02/13 00:20:21;;;;;;;25.17;20.73;;;8.40;99.90;;;;;;5043684;28;20459;-85
2023/02/13 00:22:47;;;;;;;24.50;20.20;;;8.40;99.90;;;;;;5042978;28;20475;-84
2023/02/13 00:25:14;;;;;;;22.07;19.50;;;8.40;99.90;;;;;;5043108;28;20448;-84
2023/02/13 00:27:41;;;;;;;26.50;20.13;;;8.30;99.90;;;;;;5043090;28;20448;-85
2023/02/13 00:30:10;;;;;;;26.07;21.10;;;8.40;99.90;;;;;;5042881;28;20480;-85
2023/02/13 00:32:37;;;;;;;28.40;20.70;;;8.40;99.90;;;;;;5022993;28;20456;-84
2023/02/13 00:35:04;;;;;;;25.77;20.87;;;8.40;99.90;;;;;;5022502;28;20456;-85
2023/02/13 00:37:30;;;;;;;27.63;22.10;;;8.40;99.90;;;;;;5041610;28;20994;-84
2023/02/13 00:39:57;;;;;;;31.17;21.77;;;8.40;99.90;;;;;;5043099;28;20468;-84
2023/02/13 00:42:25;;;;;;;23.87;20.60;;;8.30;99.90;;;;;;5042447;28;20483;-84
2023/02/13 00:44:52;;;;;;;25.13;21.03;;;8.40;99.90;;;;;;5042614;28;20520;-85
2023/02/13 00:47:20;;;;;;;28.30;23.40;;;8.30;99.90;;;;;;5042958;28;20455;-84
2023/02/13 00:49:47;;;;;;;32.10;25.20;;;8.30;99.90;;;;;;5042793;28;20476;-84
2023/02/13 00:52:13;;;;;;;32.33;25.40;;;8.30;99.90;;;;;;5042940;28;20456;-84
2023/02/13 00:54:40;;;;;;;31.70;27.20;;;8.20;99.90;;;;;;5042234;28;20461;-85
2023/02/13 00:57:07;;;;;;;31.60;28.50;;;8.20;99.90;;;;;;5042138;28;20459;-85
2023/02/13 00:59:33;;;;;;;34.83;31.37;;;8.20;99.90;;;;;;5042489;28;20469;-85
2023/02/13 01:02:00;;;;;;;38.83;34.80;;;8.20;99.90;;;;;;5042539;28;20482;-85
2023/02/13 01:04:28;;;;;;;40.17;36.60;;;8.10;99.90;;;;;;5042586;28;20456;-84
2023/02/13 01:06:55;;;;;;;45.97;41.93;;;8.20;99.90;;;;;;5042448;28;20455;-84
2023/02/13 01:09:22;;;;;;;49.67;45.43;;;8.10;99.90;;;;;;5041761;28;20880;-85
2023/02/13 01:11:48;;;;;;;59.47;55.20;;;8.10;99.90;;;;;;5042202;28;20456;-85
2023/02/13 01:14:15;;;;;;;67.50;63.00;;;8.00;99.90;;;;;;5041851;28;20452;-84
2023/02/13 01:16:42;;;;;;;72.87;67.63;;;8.00;99.90;;;;;;5042446;28;20463;-84
2023/02/13 01:19:08;;;;;;;71.33;66.30;;;8.00;99.90;;;;;;5042154;28;20855;-85
2023/02/13 01:21:36;;;;;;;74.23;68.80;;;7.90;99.90;;;;;;5041230;28;20452;-84
2023/02/13 01:24:04;;;;;;;73.73;68.53;;;8.00;99.90;;;;;;5041921;28;20486;-83
2023/02/13 01:26:31;;;;;;;65.70;61.40;;;8.00;99.90;;;;;;5041884;28;20452;-84
2023/02/13 01:28:58;;;;;;;64.87;60.57;;;8.00;99.90;;;;;;5041550;28;20472;-85
2023/02/13 01:31:25;;;;;;;68.40;63.60;;;8.00;99.90;;;;;;5041676;28;20456;-86
2023/02/13 01:33:52;;;;;;;67.57;63.27;;;8.00;99.90;;;;;;5041935;28;20454;-83
2023/02/13 01:36:19;;;;;;;81.60;76.60;;;8.00;99.90;;;;;;5041361;28;20463;-85
2023/02/13 01:38:47;;;;;;;88.93;83.97;;;7.90;99.90;;;;;;5041347;28;20480;-85
2023/02/13 01:41:14;;;;;;;96.93;91.30;;;7.90;99.90;;;;;;5041521;28;20866;-84
2023/02/13 01:43:50;;;;;;;99.23;93.70;;;7.80;99.90;;;;;;5040967;28;20469;-85
2023/02/13 01:46:23;;;;;;;104.77;99.10;;;7.90;99.90;;;;;;5041252;28;20456;-84
2023/02/13 01:48:53;;;;;;;108.50;102.40;;;7.80;99.90;;;;;;5041609;28;20472;-84
2023/02/13 01:51:24;;;;;;;110.43;104.73;;;7.90;99.90;;;;;;5041587;28;20456;-84
2023/02/13 01:53:55;;;;;;;108.20;102.70;;;7.90;99.90;;;;;;5040823;28;20441;-84
2023/02/13 01:56:27;;;;;;;95.60;90.63;;;7.90;99.90;;;;;;5041553;28;20447;-84
2023/02/13 01:58:58;;;;;;;92.00;86.53;;;7.90;99.90;;;;;;5040995;28;20472;-83
2023/02/13 02:01:26;;;;;;;83.23;78.47;;;7.90;99.90;;;;;;5041101;28;20459;-84
2023/02/13 02:03:58;;;;;;;85.60;80.47;;;7.90;99.90;;;;;;5040696;28;20846;-84
2023/02/13 02:06:28;;;;;;;78.33;73.43;;;8.00;99.90;;;;;;5022571;28;20473;-85
2023/02/13 02:09:01;;;;;;;74.30;69.67;;;7.90;99.90;;;;;;5030364;28;20474;-84
2023/02/13 02:11:35;;;;;;;82.77;78.33;;;7.90;99.90;;;;;;5041466;28;20861;-84
2023/02/13 02:14:02;;;;;;;101.03;95.80;;;7.90;99.90;;;;;;5040959;28;21116;-85
2023/02/13 02:16:31;;;;;;;114.33;107.40;;;7.80;99.90;;;;;;5040527;28;20452;-85
2023/02/13 02:18:57;;;;;;;122.47;116.53;;;7.90;99.90;;;;;;5040439;28;20476;-84
2023/02/13 02:22:00;;;;;;;114.37;108.57;;;7.90;99.90;;;;;;5040311;28;20449;-84
2023/02/13 02:24:53;;;;;;;106.57;101.50;;;7.90;99.90;;;;;;5040235;28;20472;-85
2023/02/13 02:27:47;;;;;;;113.63;107.97;;;7.90;99.90;;;;;;5040838;28;20452;-85
2023/02/13 02:30:47;;;;;;;127.03;121.30;;;7.90;99.90;;;;;;5037371;28;20855;-84
2023/02/13 02:33:29;;;;;;;137.73;131.70;;;7.80;99.90;;;;;;5038871;28;20440;-85
2023/02/13 02:36:06;;;;;;;146.23;139.47;;;7.80;99.90;;;;;;5041485;28;20560;-84
2023/02/13 02:38:48;;;;;;;159.63;153.07;;;7.80;99.90;;;;;;5021302;28;20472;-84
2023/02/13 02:44:08;;;;;;;169.30;162.30;;;7.70;99.90;;;;;;5039144;28;20460;-84
2023/02/13 02:49:57;;;;;;;153.87;146.87;;;7.70;99.90;;;;;;5040453;28;20458;-85
2023/02/13 02:52:18;;;;;;;164.63;157.33;;;7.80;99.90;;;;;;5040461;28;20532;-84
2023/02/13 02:55:07;;;;;;;170.13;163.33;;;7.80;99.90;;;;;;5040809;28;20457;-85
2023/02/13 03:06:12;;;;;;;283.57;272.73;;;7.50;99.90;;;;;;5040098;28;20490;-85
2023/02/13 03:14:13;;;;;;;291.37;280.10;;;7.50;99.90;;;;;;5040892;28;20528;-85
2023/02/13 03:22:41;;;;;;;302.83;291.40;;;7.40;99.90;;;;;;5035751;28;20478;-84
2023/02/13 03:25:17;;;;;;;326.00;313.50;;;7.30;99.90;;;;;;5039036;28;20451;-84
2023/02/13 03:30:43;;;;;;;382.33;367.47;;;7.10;99.90;;;;;;5020232;28;20439;-84
2023/02/13 03:33:23;;;;;;;423.70;407.47;;;7.00;99.90;;;;;;5031587;28;20448;-84
2023/02/13 03:38:51;;;;;;;503.07;482.77;;;6.90;99.90;;;;;;5037644;28;20528;-84
2023/02/13 03:41:23;;;;;;;550.63;527.57;;;6.80;99.90;;;;;;5039426;28;20452;-84
2023/02/13 03:44:00;;;;;;;588.73;562.70;;;6.70;99.90;;;;;;5039631;28;20476;-83
2023/02/13 03:46:31;;;;;;;607.27;580.30;;;6.70;99.90;;;;;;5042948;28;20799;-85
2023/02/13 03:51:49;;;;;;;651.13;620.43;;;6.50;99.90;;;;;;5023490;28;20444;-84
2023/02/13 03:54:21;;;;;;;677.13;644.97;;;6.40;99.90;;;;;;5024417;28;20434;-84
2023/02/13 03:59:36;;;;;;;727.17;689.53;;;6.20;99.90;;;;;;5030791;28;20997;-83
2023/02/13 04:02:10;;;;;;;754.90;715.13;;;6.10;99.90;;;;;;5042927;28;20535;-84
2023/02/13 04:04:46;;;;;;;774.37;731.57;;;6.00;99.90;;;;;;5043112;28;20480;-84
2023/02/13 04:07:28;;;;;;;797.77;750.30;;;5.80;99.90;;;;;;5043367;28;20436;-85
2023/02/13 04:09:58;;;;;;;827.67;776.87;;;5.70;99.90;;;;;;5043583;28;20544;-84
2023/02/13 04:12:37;;;;;;;827.47;773.83;;;5.70;99.90;;;;;;5042775;28;21030;-84
2023/02/13 04:15:10;;;;;;;833.57;776.60;;;5.60;99.90;;;;;;5042759;28;20459;-84
2023/02/13 04:17:42;;;;;;;832.90;775.50;;;5.50;99.90;;;;;;5042899;28;20437;-84
2023/02/13 04:20:09;;;;;;;836.33;775.90;;;5.60;99.90;;;;;;5041798;28;20487;-84
2023/02/13 04:22:42;;;;;;;818.07;756.93;;;5.50;99.90;;;;;;5042043;28;20448;-86
2023/02/13 04:25:11;;;;;;;807.67;744.70;;;5.50;99.90;;;;;;5042017;28;20455;-84
2023/02/13 04:27:38;;;;;;;818.33;756.33;;;5.40;99.90;;;;;;5042824;28;20456;-83
2023/02/13 04:30:06;;;;;;;823.47;759.43;;;5.30;99.90;;;;;;5042075;28;20476;-83
2023/02/13 04:32:33;;;;;;;835.00;770.40;;;5.30;99.90;;;;;;5025374;28;20472;-84
2023/02/13 04:35:00;;;;;;;819.20;753.10;;;5.20;99.90;;;;;;5042083;28;20459;-84
2023/02/13 04:37:27;;;;;;;823.77;757.00;;;5.10;99.90;;;;;;5041356;28;20445;-85
2023/02/13 04:39:53;;;;;;;825.30;759.00;;;5.00;99.90;;;;;;5041602;28;20479;-85
2023/02/13 04:42:21;;;;;;;825.40;757.93;;;5.00;99.90;;;;;;5041817;28;20448;-84
2023/02/13 04:44:48;;;;;;;833.47;763.40;;;4.80;99.90;;;;;;5041234;28;20587;-84
2023/02/13 04:47:15;;;;;;;825.97;754.40;;;4.70;99.90;;;;;;5041671;28;20459;-85
2023/02/13 04:49:41;;;;;;;838.50;764.73;;;4.70;99.90;;;;;;5042214;28;20852;-84
2023/02/13 04:52:08;;;;;;;805.13;732.13;;;4.70;99.90;;;;;;5042234;28;20448;-83
2023/02/13 04:54:35;;;;;;;800.00;724.97;;;4.60;99.90;;;;;;5041756;28;20455;-85
2023/02/13 04:57:02;;;;;;;788.50;712.40;;;4.70;99.90;;;;;;5040710;28;20449;-84
2023/02/13 04:59:30;;;;;;;787.50;711.10;;;4.60;99.90;;;;;;5041312;28;20472;-84
2023/02/13 05:01:58;;;;;;;786.53;710.30;;;4.70;99.90;;;;;;5041080;28;20962;-85
2023/02/13 05:04:24;;;;;;;771.03;693.13;;;4.70;99.90;;;;;;5041614;28;20483;-83
2023/02/13 05:06:51;;;;;;;767.07;688.93;;;4.70;99.90;;;;;;5041886;28;20471;-84
2023/02/13 05:09:18;;;;;;;774.70;694.97;;;4.60;99.90;;;;;;5041803;28;20471;-85
2023/02/13 05:11:45;;;;;;;778.33;699.90;;;4.80;99.90;;;;;;5041272;28;20448;-85
2023/02/13 05:14:12;;;;;;;773.87;695.40;;;4.80;99.90;;;;;;5041694;28;20449;-85
2023/02/13 05:16:40;;;;;;;780.53;701.30;;;4.90;99.90;;;;;;5041318;28;20541;-85
2023/02/13 05:19:07;;;;;;;787.63;708.40;;;4.90;99.90;;;;;;5041195;28;20503;-84
2023/02/13 05:24:18;;;;;;;760.40;680.70;;;5.00;99.90;;;;;;5023679;28;20492;-84
2023/02/13 05:26:45;;;;;;;753.50;674.33;;;5.10;99.90;;;;;;5040370;28;20456;-84
2023/02/13 05:29:21;;;;;;;784.50;705.00;;;5.20;99.90;;;;;;5041586;28;21005;-85
2023/02/13 05:31:50;;;;;;;751.10;675.50;;;5.10;99.90;;;;;;5041523;28;20452;-84
2023/02/13 05:34:17;;;;;;;752.07;674.97;;;5.00;99.90;;;;;;5041212;28;20445;-84
2023/02/13 05:36:44;;;;;;;760.23;682.80;;;5.00;99.90;;;;;;5041706;28;20476;-85
2023/02/13 05:39:11;;;;;;;766.60;688.20;;;5.00;99.90;;;;;;5043559;28;20479;-83
2023/02/13 05:41:38;;;;;;;760.13;682.30;;;5.00;99.90;;;;;;5044664;28;20459;-84
2023/02/13 05:44:05;;;;;;;782.40;705.10;;;5.10;99.90;;;;;;5043599;28;20483;-84
2023/02/13 05:46:33;;;;;;;790.07;712.27;;;5.00;99.90;;;;;;5041321;28;20460;-84
2023/02/13 05:49:01;;;;;;;811.77;734.17;;;5.00;99.90;;;;;;5039276;28;20468;-84
2023/02/13 05:51:27;;;;;;;775.87;700.37;;;4.90;99.90;;;;;;5033284;28;20459;-84
2023/02/13 05:53:54;;;;;;;779.47;703.73;;;4.90;99.90;;;;;;5042874;28;20451;-83
2023/02/13 05:56:21;;;;;;;757.83;683.37;;;5.00;99.90;;;;;;5042570;28;20458;-84
2023/02/13 05:58:51;;;;;;;778.60;703.00;;;5.00;99.90;;;;;;5037800;28;20477;-83
2023/02/13 06:01:18;;;;;;;758.80;683.30;;;4.90;99.90;;;;;;5040880;28;20452;-84
2023/02/13 06:03:46;;;;;;;759.90;684.30;;;4.80;99.90;;;;;;5046357;28;20537;-85
2023/02/13 06:06:14;;;;;;;754.17;679.33;;;4.90;99.90;;;;;;5045800;28;20461;-84
2023/02/13 06:08:41;;;;;;;761.23;686.40;;;5.00;99.90;;;;;;5042840;28;20480;-83
2023/02/13 06:11:08;;;;;;;748.97;675.50;;;5.00;99.90;;;;;;5022870;28;20532;-85
2023/02/13 06:13:36;;;;;;;758.43;684.70;;;5.00;99.90;;;;;;5023127;28;20453;-84
2023/02/13 06:16:03;;;;;;;755.10;682.37;;;5.10;99.90;;;;;;5040560;28;20467;-84
2023/02/13 06:18:30;;;;;;;751.00;678.97;;;5.10;99.90;;;;;;5028777;28;20481;-85
2023/02/13 06:20:58;;;;;;;749.33;678.03;;;5.00;99.90;;;;;;5036318;28;20457;-83
2023/02/13 06:23:26;;;;;;;769.33;697.53;;;5.00;99.90;;;;;;5040181;28;20472;-84
2023/02/13 06:25:53;;;;;;;771.53;700.35;;;4.90;99.90;;;;;;5038582;28;20453;-84
2023/02/13 06:28:20;;;;;;;761.17;692.97;;;4.80;99.90;;;;;;5040483;28;20841;-83
2023/02/13 06:30:47;;;;;;;764.57;697.63;;;4.90;99.90;;;;;;5039796;28;20460;-84
2023/02/13 06:33:14;;;;;;;757.67;693.47;;;4.80;99.90;;;;;;5040095;28;20460;-85
2023/02/13 06:35:41;;;;;;;755.53;692.57;;;4.60;99.90;;;;;;5040377;28;20452;-84
2023/02/13 06:38:07;;;;;;;773.07;712.17;;;4.50;99.90;;;;;;5040366;28;20452;-83
2023/02/13 06:40:36;;;;;;;790.90;730.07;;;4.30;99.90;;;;;;5040175;28;20456;-83
2023/02/13 06:43:02;;;;;;;787.77;724.83;;;4.30;99.90;;;;;;5040160;28;20948;-83
2023/02/13 06:45:29;;;;;;;789.23;724.83;;;4.20;99.90;;;;;;5040200;28;20491;-84
2023/02/13 06:47:56;;;;;;;767.07;699.87;;;4.10;99.90;;;;;;5040257;28;20460;-83
2023/02/13 06:50:23;;;;;;;778.70;709.93;;;4.20;99.90;;;;;;5039959;28;20461;-83
2023/02/13 06:52:51;;;;;;;764.60;695.40;;;4.10;99.90;;;;;;5039653;28;20460;-83
2023/02/13 06:55:19;;;;;;;765.50;693.53;;;4.10;99.90;;;;;;5039335;28;20836;-83
2023/02/13 06:57:47;;;;;;;754.37;678.93;;;4.30;99.90;;;;;;5039382;28;20463;-84
2023/02/13 07:00:16;;;;;;;758.53;682.70;;;4.30;99.90;;;;;;5039336;28;20472;-83
2023/02/13 07:02:45;;;;;;;749.67;675.17;;;4.40;99.90;;;;;;5039300;28;20460;-83
2023/02/13 07:05:12;;;;;;;754.43;679.43;;;4.50;99.90;;;;;;5039290;28;20480;-84
2023/02/13 07:07:39;;;;;;;758.27;683.20;;;4.60;99.90;;;;;;5019226;28;20457;-83
2023/02/13 07:10:08;;;;;;;767.17;690.90;;;4.60;99.90;;;;;;5019743;28;20472;-82
2023/02/13 07:12:35;;;;;;;767.47;692.80;;;4.70;99.90;;;;;;5020427;28;20453;-84
2023/02/13 07:15:04;;;;;;;774.77;700.00;;;4.60;99.90;;;;;;5019549;28;20449;-85
2023/02/13 07:17:32;;;;;;;777.33;701.53;;;4.60;99.90;;;;;;5020084;28;20457;-84
2023/02/13 07:19:59;;;;;;;772.53;697.33;;;4.70;99.90;;;;;;5021146;28;20485;-83
2023/02/13 07:22:26;;;;;;;765.80;692.23;;;4.70;99.90;;;;;;5023525;28;20463;-83
2023/02/13 07:24:53;;;;;;;764.27;691.33;;;4.80;99.90;;;;;;5023114;28;20487;-83
2023/02/13 07:27:19;;;;;;;758.27;686.67;;;4.90;99.90;;;;;;5022524;28;20456;-83
2023/02/13 07:29:46;;;;;;;754.37;684.33;;;5.10;99.90;;;;;;5023262;28;20473;-83
2023/02/13 07:32:14;;;;;;;763.90;695.67;;;5.00;99.90;;;;;;5022672;28;20445;-83
2023/02/13 07:34:41;;;;;;;767.20;698.27;;;5.10;99.90;;;;;;5021726;28;20952;-82
2023/02/13 07:37:08;;;;;;;769.30;700.63;;;5.20;99.90;;;;;;5021669;28;20464;-82
2023/02/13 07:39:37;;;;;;;752.73;686.80;;;5.20;99.90;;;;;;5022428;28;20552;-84
2023/02/13 07:42:04;;;;;;;751.00;686.87;;;5.20;99.90;;;;;;5021925;28;20467;-83
2023/02/13 07:44:31;;;;;;;735.57;675.07;;;5.40;99.90;;;;;;5022227;28;20487;-83
2023/02/13 07:46:59;;;;;;;740.77;681.00;;;5.40;99.90;;;;;;5023535;28;20465;-84
2023/02/13 07:49:27;;;;;;;738.60;680.33;;;5.40;99.90;;;;;;5022590;28;20483;-83
2023/02/13 07:51:56;;;;;;;746.83;688.83;;;5.50;99.90;;;;;;5023018;28;20475;-83
2023/02/13 07:54:23;;;;;;;741.80;684.70;;;5.60;99.90;;;;;;5022719;28;20975;-83
2023/02/13 07:56:50;;;;;;;733.03;677.77;;;5.60;99.90;;;;;;5022969;28;20959;-83
2023/02/13 07:59:16;;;;;;;728.33;673.20;;;5.70;99.90;;;;;;5022480;28;20468;-82
2023/02/13 08:01:43;;;;;;;728.50;674.93;;;5.70;99.90;;;;;;5022958;28;20524;-83
2023/02/13 08:04:10;;;;;;;710.40;659.00;;;5.70;99.90;;;;;;5021132;28;20476;-83
2023/02/13 08:06:40;;;;;;;698.93;650.20;;;5.80;99.90;;;;;;5038502;28;20535;-83
2023/02/13 08:11:55;;;;;;;675.27;629.37;;;6.00;99.90;;;;;;5043053;28;20431;-83
2023/02/13 08:14:23;;;;;;;657.93;615.87;;;6.10;99.90;;;;;;5042580;28;20439;-83
2023/02/13 08:16:51;;;;;;;660.40;618.03;;;6.10;99.90;;;;;;5042710;28;20969;-83
2023/02/13 08:19:18;;;;;;;655.43;616.13;;;6.20;99.90;;;;;;5042437;28;20476;-82
2023/02/13 08:21:46;;;;;;;646.70;607.33;;;6.20;99.90;;;;;;5042465;28;20452;-84
2023/02/13 08:24:13;;;;;;;646.77;608.60;;;6.30;99.90;;;;;;5041873;28;20816;-83
2023/02/13 08:26:40;;;;;;;639.17;602.30;;;6.30;99.90;;;;;;5042191;28;20846;-83
2023/02/13 08:29:07;;;;;;;631.10;595.50;;;6.30;99.90;;;;;;5042505;28;20481;-83
2023/02/13 08:31:34;;;;;;;627.23;592.60;;;6.40;99.90;;;;;;5040855;28;20463;-83
2023/02/13 08:34:01;;;;;;;597.77;565.37;;;6.40;99.90;;;;;;5042785;28;20452;-82
2023/02/13 08:36:27;;;;;;;580.30;549.20;;;6.40;99.90;;;;;;5042118;28;20456;-82
2023/02/13 08:38:56;;;;;;;540.20;512.80;;;6.60;99.90;;;;;;5042015;28;20476;-82
2023/02/13 08:41:23;;;;;;;527.70;502.00;;;6.60;99.90;;;;;;5042183;28;20440;-84
2023/02/13 08:43:50;;;;;;;484.87;461.97;;;6.70;99.90;;;;;;5041757;28;20567;-83
2023/02/13 08:46:17;;;;;;;453.43;433.13;;;6.80;99.90;;;;;;5042159;28;20452;-83
2023/02/13 08:48:44;;;;;;;428.33;409.53;;;6.90;99.90;;;;;;5042163;28;20860;-83
2023/02/13 08:51:13;;;;;;;410.80;392.63;;;7.00;99.90;;;;;;5042423;28;20448;-84
2023/02/13 08:53:41;;;;;;;370.87;354.93;;;7.00;99.90;;;;;;5042422;28;20444;-83
2023/02/13 08:56:10;;;;;;;328.20;314.43;;;7.20;99.90;;;;;;5041972;28;20939;-83
2023/02/13 08:58:37;;;;;;;325.43;311.57;;;7.20;99.90;;;;;;5042262;28;20469;-84
2023/02/13 09:01:09;;;;;;;270.10;259.10;;;7.20;99.90;;;;;;5043150;28;20455;-82
2023/02/13 09:03:36;;;;;;;202.33;193.67;;;7.30;99.90;;;;;;5042714;28;20582;-83
2023/02/13 09:06:03;;;;;;;184.57;176.70;;;7.50;99.90;;;;;;5042656;28;20559;-84
2023/02/13 09:08:31;;;;;;;186.10;178.17;;;7.50;99.90;;;;;;5041187;28;20472;-83
2023/02/13 09:11:00;;;;;;;174.20;166.37;;;7.50;99.90;;;;;;5038413;28;20463;-84
2023/02/13 09:13:29;;;;;;;129.37;123.33;;;7.60;99.90;;;;;;5022990;28;20461;-82
2023/02/13 09:15:59;;;;;;;84.40;80.13;;;7.70;99.90;;;;;;5022281;28;20457;-84
2023/02/13 09:18:26;;;;;;;83.83;78.93;;;7.70;99.90;;;;;;5022164;28;20477;-83
2023/02/13 09:20:58;;;;;;;89.03;83.70;;;7.80;99.90;;;;;;5022396;28;20443;-83
2023/02/13 09:23:24;;;;;;;74.33;70.23;;;7.90;99.90;;;;;;5022382;28;20437;-83
2023/02/13 09:25:51;;;;;;;62.50;58.30;;;7.90;99.90;;;;;;5022853;28;20480;-84
2023/02/13 09:28:18;;;;;;;31.93;28.53;;;8.00;99.90;;;;;;5041855;28;20878;-84
2023/02/13 09:30:47;;;;;;;25.13;22.53;;;8.00;99.90;;;;;;5041383;28;20448;-85
2023/02/13 09:33:14;;;;;;;28.17;17.30;;;8.10;99.90;;;;;;5040669;28;20479;-84
2023/02/13 09:35:43;;;;;;;24.50;16.57;;;8.20;99.90;;;;;;5039650;28;20573;-86
2023/02/13 09:38:12;;;;;;;22.80;17.30;;;8.30;99.90;;;;;;5041671;28;20456;-85
2023/02/13 09:40:44;;;;;;;24.07;15.13;;;8.40;99.90;;;;;;5042352;28;20459;-84
2023/02/13 09:43:15;;;;;;;20.47;13.40;;;8.40;99.90;;;;;;5039112;28;20467;-84
2023/02/13 09:45:44;;;;;;;22.00;14.73;;;8.50;99.90;;;;;;5039440;28;20475;-84
2023/02/13 09:48:18;;;;;;;23.53;13.30;;;8.60;99.90;;;;;;5039239;28;20468;-84
2023/02/13 09:50:45;;;;;;;25.37;13.60;;;8.60;99.90;;;;;;5039729;28;20448;-84
2023/02/13 09:53:21;;;;;;;30.50;15.00;;;8.80;99.90;;;;;;5039064;28;20471;-84
2023/02/13 09:55:56;;;;;;;19.37;12.80;;;8.80;99.90;;;;;;5039647;28;20429;-84
2023/02/13 09:58:38;;;;;;;23.70;14.20;;;9.00;99.90;;;;;;5039161;28;20485;-84
2023/02/13 10:01:14;;;;;;;23.20;14.10;;;9.30;99.90;;;;;;5039737;28;20531;-84
2023/02/13 10:03:46;;;;;;;21.17;13.97;;;9.60;99.90;;;;;;5039909;28;20467;-84
2023/02/13 10:06:20;;;;;;;21.03;11.70;;;10.10;99.90;;;;;;5038496;28;20522;-84
2023/02/13 10:09:01;;;;;;;18.03;11.00;;;10.60;99.90;;;;;;5038985;28;20479;-84
2023/02/13 10:11:53;;;;;;;18.70;10.50;;;11.10;99.90;;;;;;5039142;28;20456;-81
2023/02/13 10:14:24;;;;;;;16.00;10.53;;;11.70;99.90;;;;;;5038477;28;20486;-80
2023/02/13 10:16:55;;;;;;;18.47;11.07;;;11.90;99.90;;;;;;5039097;28;20456;-82
2023/02/13 10:19:34;;;;;;;19.47;10.80;;;12.20;99.90;;;;;;5038584;28;20498;-82
2023/02/13 10:22:06;;;;;;;19.93;13.03;;;12.30;99.90;;;;;;5039337;28;20877;-82
2023/02/13 10:24:56;;;;;;;17.87;9.37;;;12.90;99.90;;;;;;5038244;28;20463;-84
2023/02/13 10:27:24;;;;;;;14.50;9.30;;;13.30;99.90;;;;;;5038957;28;20459;-84
2023/02/13 10:30:05;;;;;;;17.03;9.97;;;13.00;99.90;;;;;;5038283;28;20476;-80
2023/02/13 10:32:39;;;;;;;17.13;10.63;;;13.20;99.90;;;;;;5038901;28;20507;-82
2023/02/13 10:35:19;;;;;;;17.23;10.67;;;13.60;99.90;;;;;;5038451;28;20441;-83
2023/02/13 10:37:49;;;;;;;17.37;9.80;;;13.60;99.80;;;;;;5039072;28;20438;-82
2023/02/13 10:40:17;;;;;;;15.60;9.53;;;14.00;99.30;;;;;;5039550;28;20466;-83
2023/02/13 10:42:45;;;;;;;16.53;10.37;;;13.60;98.30;;;;;;5038711;28;20464;-83
2023/02/13 10:45:40;;;;;;;17.23;10.50;;;13.20;97.60;;;;;;5038863;28;20477;-83
2023/02/13 10:48:19;;;;;;;14.17;8.70;;;13.50;98.90;;;;;;5039046;28;20473;-82
2023/02/13 10:50:57;;;;;;;15.40;8.93;;;13.70;97.60;;;;;;5038531;28;20438;-83
2023/02/13 10:53:36;;;;;;;14.30;8.50;;;13.80;97.10;;;;;;5038651;28;20444;-83
2023/02/13 10:56:24;;;;;;;15.67;9.50;;;14.50;97.00;;;;;;5038326;28;20465;-83
2023/02/13 10:59:03;;;;;;;16.43;10.97;;;14.70;96.60;;;;;;5038325;28;20909;-84
2023/02/13 11:01:36;;;;;;;15.60;8.83;;;15.00;96.10;;;;;;5038605;28;20440;-83
2023/02/13 11:04:08;;;;;;;20.23;11.03;;;15.20;94.70;;;;;;5038573;28;20456;-83
2023/02/13 11:06:38;;;;;;;21.83;9.97;;;15.20;93.50;;;;;;5038642;28;20483;-83
2023/02/13 11:09:07;;;;;;;14.57;8.93;;;15.60;93.30;;;;;;5038392;28;20470;-85
2023/02/13 11:11:36;;;;;;;17.80;9.73;;;16.20;91.90;;;;;;5037981;28;20457;-83
2023/02/13 11:14:12;;;;;;;15.03;9.60;;;16.30;90.70;;;;;;5037942;28;20465;-84
2023/02/13 11:16:49;;;;;;;19.00;9.60;;;16.50;90.10;;;;;;5038334;28;20446;-83
2023/02/13 11:19:22;;;;;;;16.10;8.90;;;16.70;87.60;;;;;;5037563;28;20497;-83
2023/02/13 11:21:55;;;;;;;16.80;10.77;;;16.60;86.50;;;;;;5038683;28;20465;-83
2023/02/13 11:24:24;;;;;;;16.90;8.80;;;16.90;86.60;;;;;;5038297;28;20443;-83
2023/02/13 11:26:54;;;;;;;13.03;8.43;;;17.10;83.40;;;;;;5039560;28;20489;-84
2023/02/13 11:29:26;;;;;;;17.07;9.17;;;17.20;83.70;;;;;;5038706;28;20562;-85
2023/02/13 11:32:18;;;;;;;20.13;8.10;;;17.20;81.30;;;;;;5039569;28;20452;-85
2023/02/13 11:35:18;;;;;;;15.37;9.23;;;17.10;77.50;;;;;;5023292;28;20456;-85
2023/02/13 11:37:46;;;;;;;17.17;8.60;;;17.20;78.10;;;;;;5036693;28;20973;-85
2023/02/13 11:40:30;;;;;;;14.37;7.47;;;17.50;77.90;;;;;;5038168;28;20474;-85
2023/02/13 11:42:57;;;;;;;11.03;7.20;;;17.90;75.70;;;;;;5037678;28;20472;-85
2023/02/13 11:45:25;;;;;;;12.70;7.57;;;18.10;72.70;;;;;;5039566;28;20482;-85
2023/02/13 11:47:55;;;;;;;15.30;8.70;;;18.10;71.50;;;;;;5041056;28;20849;-83
2023/02/13 11:50:26;;;;;;;14.93;8.77;;;18.20;68.80;;;;;;5039054;28;20971;-85
2023/02/13 11:52:57;;;;;;;12.40;7.77;;;18.70;68.90;;;;;;5037787;28;20803;-83
2023/02/13 11:55:32;;;;;;;13.20;7.73;;;18.50;68.20;;;;;;5036503;28;20455;-86
2023/02/13 12:00:51;;;;;;;14.63;7.70;;;18.90;65.10;;;;;;5035424;28;20453;-83
2023/02/13 12:03:27;;;;;;;12.83;8.27;;;19.00;63.60;;;;;;5037521;28;20450;-85
2023/02/13 12:06:02;;;;;;;12.87;7.40;;;19.00;61.40;;;;;;5038245;28;20508;-85
2023/02/13 12:08:33;;;;;;;14.13;7.30;;;19.10;60.30;;;;;;5040878;28;20482;-86
2023/02/13 12:11:01;;;;;;;13.27;7.97;;;19.20;59.90;;;;;;5041009;28;20452;-85
2023/02/13 12:13:32;;;;;;;14.00;7.53;;;19.40;57.60;;;;;;5042674;28;20464;-85
2023/02/13 12:16:04;;;;;;;12.23;7.70;;;19.90;56.00;;;;;;5042208;28;20494;-83
2023/02/13 12:18:37;;;;;;;13.37;8.33;;;19.50;52.80;;;;;;5041148;28;20485;-85
2023/02/13 12:21:12;;;;;;;14.60;8.60;;;19.10;57.40;;;;;;5041687;28;20471;-85
2023/02/13 12:23:47;;;;;;;12.87;7.30;;;18.40;57.80;;;;;;5040398;28;20985;-84
2023/02/13 12:26:26;;;;;;;13.77;7.70;;;19.30;56.20;;;;;;5040583;28;20493;-84
2023/02/13 12:29:18;;;;;;;13.10;8.13;;;19.00;56.10;;;;;;5041845;28;20499;-85
2023/02/13 12:32:02;;;;;;;14.27;8.13;;;19.30;54.00;;;;;;5041718;28;20832;-83
2023/02/13 12:34:59;;;;;;;13.50;8.40;;;19.70;51.00;;;;;;5040793;28;20546;-83
2023/02/13 12:37:47;;;;;;;13.53;7.37;;;19.50;49.70;;;;;;5041629;28;20459;-84
2023/02/13 12:40:29;;;;;;;11.10;6.80;;;19.80;51.20;;;;;;5040430;28;21029;-83
2023/02/13 12:43:17;;;;;;;12.63;7.10;;;20.40;44.70;;;;;;5040335;28;20438;-83
2023/02/13 12:45:54;;;;;;;10.13;6.47;;;20.40;43.80;;;;;;5039938;28;20826;-85
2023/02/13 12:48:33;;;;;;;11.13;6.30;;;20.30;42.00;;;;;;5039012;28;20468;-85
2023/02/13 12:51:20;;;;;;;14.43;8.47;;;20.70;39.70;;;;;;5039895;28;20444;-85
2023/02/13 12:54:03;;;;;;;13.03;7.90;;;20.70;39.80;;;;;;5040262;28;20463;-84
2023/02/13 12:56:50;;;;;;;10.50;6.40;;;21.00;38.50;;;;;;5040083;28;20459;-83
2023/02/13 12:59:27;;;;;;;11.20;6.93;;;19.90;39.20;;;;;;5039750;28;20486;-84
2023/02/13 13:02:32;;;;;;;12.07;7.50;;;19.80;42.10;;;;;;5039709;28;20455;-83
2023/02/13 13:05:14;;;;;;;14.20;6.83;;;20.60;40.30;;;;;;4983256;28;20457;-83
2023/02/13 13:07:57;;;;;;;13.03;6.87;;;20.10;42.40;;;;;;5040018;28;20447;-84
2023/02/13 13:10:47;;;;;;;13.27;7.43;;;20.40;38.60;;;;;;5039940;28;20901;-82
2023/02/13 13:13:28;;;;;;;11.40;6.80;;;20.20;35.50;;;;;;5040543;28;20456;-85
2023/02/13 13:16:02;;;;;;;14.80;7.50;;;20.00;38.50;;;;;;5038938;28;20440;-84
2023/02/13 13:18:41;;;;;;;10.70;6.50;;;20.90;36.10;;;;;;5038743;28;20486;-83
2023/02/13 13:21:26;;;;;;;11.47;6.60;;;20.80;36.00;;;;;;5039697;28;20436;-83
2023/02/13 13:23:59;;;;;;;13.85;7.70;;;20.60;34.00;;;;;;5038100;28;20457;-83
2023/02/13 13:26:36;;;;;;;11.07;5.93;;;20.80;35.30;;;;;;5039672;28;20223;-83
2023/02/13 13:29:06;;;;;;;10.13;6.50;;;20.40;33.10;;;;;;5040229;28;20548;-83
2023/02/13 13:31:35;;;;;;;10.23;5.90;;;19.70;35.00;;;;;;5039721;28;20448;-83